KHSI

Hastings Municipal Airport

Hastings, Nebraska, USA
METAR KHSI 180253Z AUTO 24003KT 10SM CLR M02/M03 A3001 RMK AO2 SLP184 T10171033 51012
Observed Flight Rules
Dec-18 @ 02:53 UTC (16 minutes ago) Visual Flight Rules
Wind Visibility Clouds
240° at 3 knots 10 miles
  • Clear skies
Temperatures Readings
Current -2°C / 28°F
Dewpoint -3°C / 27°F
Humidity 93%
Altimeter 30.01" Hg
Pressure 1018.4 hPa
Elevation 591
METAR KHSI 180253Z AUTO 24003KT 10SM CLR M02/M03 A3001 RMK AO2 SLP184 T10171033 51012
Observed Flight Rules
Dec-18 @ 02:53 UTC
(16 minutes ago)
VFR
Wind Visibility
240° at 3 knots 10 miles
Clouds
  • Clear skies
Temperature Dewpoint
-2°C / 28°F -3°C / 27°F
Humidity Altimeter Pressure
93% 30.01" Hg 1018.4 hPa